createdAt,value
2022-11-26T00:05:00.380Z,46.43
2022-11-26T00:10:04.908Z,41.27
2022-11-26T00:15:16.026Z,48.97
2022-11-26T00:20:21.749Z,47.23
2022-11-26T00:25:28.054Z,42.13
2022-11-26T00:30:30.100Z,47.23
2022-11-26T00:35:34.132Z,64.87
2022-11-26T00:40:35.798Z,53.33
2022-11-26T00:45:37.564Z,52.17
2022-11-26T00:50:44.663Z,56.00
2022-11-26T00:55:49.903Z,51.67
2022-11-26T01:00:52.732Z,44.13
2022-11-26T01:05:59.849Z,52.93
2022-11-26T01:11:05.443Z,50.60
2022-11-26T01:16:42.272Z,67.37
2022-11-26T01:21:44.412Z,54.63
2022-11-26T01:26:49.076Z,43.50
2022-11-26T01:31:52.321Z,52.63
2022-11-26T01:36:57.385Z,46.00
2022-11-26T01:42:31.759Z,51.93
2022-11-26T01:47:35.989Z,57.40
2022-11-26T01:52:37.693Z,53.93
2022-11-26T01:57:42.764Z,67.23
2022-11-26T02:02:46.024Z,75.43
2022-11-26T02:07:56.125Z,48.63
2022-11-26T02:13:00.244Z,75.13
2022-11-26T02:18:09.596Z,66.03
2022-11-26T02:23:39.058Z,65.93
2022-11-26T02:28:46.456Z,61.50
2022-11-26T02:34:16.390Z,68.97
2022-11-26T02:39:23.686Z,57.73
2022-11-26T02:44:27.948Z,106.13
2022-11-26T02:49:33.912Z,50.07
2022-11-26T02:54:41.521Z,55.90
2022-11-26T02:59:43.352Z,64.30
2022-11-26T03:04:49.105Z,57.30
2022-11-26T03:09:59.476Z,63.63
2022-11-26T03:15:03.414Z,65.30
2022-11-26T03:20:08.147Z,63.70
2022-11-26T03:25:10.288Z,50.93
2022-11-26T03:30:14.378Z,60.23
2022-11-26T03:35:20.897Z,73.57
2022-11-26T03:40:24.838Z,76.33
2022-11-26T03:45:35.516Z,72.00
2022-11-26T03:50:37.255Z,53.47
2022-11-26T03:55:38.956Z,70.00
2022-11-26T04:00:40.749Z,55.83
2022-11-26T04:05:45.816Z,58.07
2022-11-26T04:10:49.710Z,54.97
2022-11-26T04:15:54.498Z,67.20
2022-11-26T04:20:58.566Z,77.13
2022-11-26T04:26:03.294Z,80.33
2022-11-26T04:31:07.489Z,65.77
2022-11-26T04:36:11.658Z,63.13
2022-11-26T04:41:20.321Z,83.80
2022-11-26T04:46:22.308Z,65.43
2022-11-26T04:51:24.025Z,80.13
2022-11-26T04:56:25.730Z,80.87
2022-11-26T05:01:27.679Z,81.47
2022-11-26T05:06:34.628Z,112.30
2022-11-26T05:11:38.633Z,94.07
2022-11-26T05:16:42.670Z,87.70
2022-11-26T05:21:46.690Z,109.97
2022-11-26T05:26:52.433Z,89.40
2022-11-26T05:32:00.617Z,82.80
2022-11-26T05:37:06.374Z,101.80
2022-11-26T05:42:09.613Z,108.83
2022-11-26T05:47:11.449Z,103.43
2022-11-26T05:52:17.606Z,102.90
2022-11-26T05:57:21.800Z,100.63
2022-11-26T06:02:23.722Z,147.60
2022-11-26T06:07:26.345Z,145.13
2022-11-26T06:12:28.120Z,179.17
2022-11-26T06:17:29.801Z,184.20
2022-11-26T06:22:36.539Z,176.73
2022-11-26T06:27:38.257Z,190.80
2022-11-26T06:32:48.283Z,168.03
2022-11-26T06:37:50.156Z,215.83
2022-11-26T06:42:53.103Z,179.10
2022-11-26T06:47:58.255Z,174.63
2022-11-26T06:53:04.706Z,160.17
2022-11-26T06:58:10.575Z,167.00
2022-11-26T07:03:18.571Z,217.80
2022-11-26T07:08:22.719Z,190.27
2022-11-26T07:13:32.648Z,212.37
2022-11-26T07:18:36.867Z,199.13
2022-11-26T07:23:42.015Z,240.43
2022-11-26T07:28:48.319Z,263.87
2022-11-26T07:33:52.858Z,239.20
2022-11-26T07:38:59.180Z,317.03
2022-11-26T07:44:03.120Z,236.40
2022-11-26T07:49:05.848Z,228.70
2022-11-26T07:54:11.609Z,214.63
2022-11-26T07:59:18.983Z,202.50
2022-11-26T08:04:25.851Z,232.30
2022-11-26T08:09:27.661Z,215.67
2022-11-26T08:14:31.596Z,279.97
2022-11-26T08:19:35.563Z,302.03
2022-11-26T08:24:37.954Z,255.50
2022-11-26T08:29:40.566Z,214.93
2022-11-26T08:34:42.640Z,293.20
2022-11-26T08:39:44.869Z,353.53
2022-11-26T08:44:47.201Z,246.97
2022-11-26T08:49:50.199Z,364.90
2022-11-26T08:54:55.925Z,269.30
2022-11-26T08:59:59.055Z,319.67
2022-11-26T09:05:00.844Z,261.23
2022-11-26T09:10:02.662Z,252.90
2022-11-26T09:15:08.826Z,236.20
2022-11-26T09:20:15.963Z,167.83
2022-11-26T09:25:20.155Z,212.33
2022-11-26T09:30:25.760Z,172.77
2022-11-26T09:35:30.071Z,119.27
2022-11-26T09:40:53.840Z,112.57
2022-11-26T09:45:59.652Z,111.70
2022-11-26T09:51:08.626Z,71.63
2022-11-26T09:56:18.286Z,73.63
2022-11-26T10:01:24.484Z,62.87
2022-11-26T10:06:37.538Z,45.90
2022-11-26T10:12:10.908Z,69.80
2022-11-26T10:17:35.737Z,77.07
2022-11-26T10:22:56.864Z,70.17
2022-11-26T10:28:03.481Z,73.87
2022-11-26T10:33:12.521Z,64.17
2022-11-26T10:38:17.878Z,63.30
2022-11-26T10:43:28.388Z,59.33
2022-11-26T10:48:32.480Z,69.20
2022-11-26T10:53:53.917Z,66.27
2022-11-26T10:59:01.409Z,114.37
2022-11-26T11:04:22.452Z,74.23
2022-11-26T11:09:37.081Z,85.87
2022-11-26T11:14:47.788Z,84.97
2022-11-26T11:19:54.161Z,75.90
2022-11-26T11:25:00.656Z,74.53
2022-11-26T11:30:04.080Z,72.87
2022-11-26T11:35:30.295Z,59.83
2022-11-26T11:40:43.309Z,65.40
2022-11-26T11:46:08.176Z,78.23
2022-11-26T11:51:25.677Z,82.53
2022-11-26T11:56:38.786Z,75.60
2022-11-26T12:02:31.963Z,68.43
2022-11-26T12:07:44.428Z,78.50
2022-11-26T12:12:48.092Z,71.00
2022-11-26T12:18:00.809Z,69.07
2022-11-26T12:23:24.278Z,57.13
2022-11-26T12:28:29.370Z,70.07
2022-11-26T12:33:41.459Z,77.70
2022-11-26T12:38:49.548Z,71.73
2022-11-26T12:44:04.874Z,76.30
2022-11-26T12:49:45.269Z,111.47
2022-11-26T12:55:25.940Z,90.70
2022-11-26T13:00:35.707Z,90.17
2022-11-26T13:05:42.026Z,105.70
2022-11-26T13:11:04.823Z,100.20
2022-11-26T13:16:40.060Z,98.23
2022-11-26T13:21:54.226Z,90.23
2022-11-26T13:27:01.740Z,109.10
2022-11-26T13:32:20.197Z,91.17
2022-11-26T13:37:57.100Z,91.40
2022-11-26T13:43:07.933Z,92.20
2022-11-26T13:48:20.019Z,93.33
2022-11-26T13:53:32.544Z,100.40
2022-11-26T13:58:45.655Z,110.03
2022-11-26T14:03:49.592Z,100.60
2022-11-26T14:08:56.572Z,112.77
2022-11-26T14:14:28.067Z,102.83
2022-11-26T14:19:44.584Z,101.33
2022-11-26T14:24:51.337Z,92.20
2022-11-26T14:30:13.347Z,89.97
2022-11-26T14:35:39.560Z,109.37
2022-11-26T14:40:46.913Z,91.13
2022-11-26T14:46:02.287Z,108.23
2022-11-26T14:51:09.487Z,109.57
2022-11-26T14:56:11.222Z,122.17
2022-11-26T15:01:15.541Z,117.07
2022-11-26T15:06:34.991Z,143.63
2022-11-26T15:11:42.672Z,121.40
2022-11-26T15:16:44.922Z,125.23
2022-11-26T15:21:51.025Z,136.87
2022-11-26T15:26:52.961Z,127.13
2022-11-26T15:31:54.798Z,126.97
2022-11-26T15:36:56.617Z,131.23
2022-11-26T15:42:06.446Z,130.53
2022-11-26T15:47:17.527Z,126.93
2022-11-26T15:52:24.304Z,132.30
2022-11-26T15:57:27.122Z,118.30
2022-11-26T16:02:31.203Z,125.90
2022-11-26T16:07:33.910Z,128.70
2022-11-26T16:12:44.374Z,126.63
2022-11-26T16:17:49.060Z,127.40
2022-11-26T16:23:01.915Z,118.00
2022-11-26T16:28:14.345Z,118.23
2022-11-26T16:33:16.166Z,123.17
2022-11-26T16:38:25.458Z,124.03
2022-11-26T16:43:27.434Z,120.20
2022-11-26T16:48:31.839Z,131.57
2022-11-26T16:53:40.748Z,136.83
2022-11-26T16:58:47.035Z,135.10
2022-11-26T17:03:48.831Z,129.23
2022-11-26T17:08:50.887Z,124.13
2022-11-26T17:13:53.134Z,132.00
2022-11-26T17:18:54.929Z,129.13
2022-11-26T17:23:56.617Z,139.40
2022-11-26T17:29:02.144Z,132.33
2022-11-26T17:34:06.823Z,123.57
2022-11-26T17:39:13.560Z,125.67
2022-11-26T17:44:17.746Z,140.63
2022-11-26T17:49:19.573Z,143.67
2022-11-26T17:54:23.620Z,129.27
2022-11-26T17:59:28.754Z,139.10
2022-11-26T18:04:33.054Z,139.20
2022-11-26T18:09:35.192Z,135.53
2022-11-26T18:14:42.377Z,123.40
2022-11-26T18:19:47.939Z,121.90
2022-11-26T18:24:57.661Z,129.77
2022-11-26T18:29:59.575Z,127.03
2022-11-26T18:35:04.753Z,137.95
2022-11-26T18:40:08.152Z,131.83
2022-11-26T18:45:13.618Z,138.33
2022-11-26T18:50:15.941Z,126.87
2022-11-26T18:55:17.952Z,125.50
2022-11-26T19:00:22.412Z,116.70
2022-11-26T19:05:26.608Z,136.87
2022-11-26T19:10:28.421Z,125.93
2022-11-26T19:15:32.866Z,144.47
2022-11-26T19:20:54.253Z,140.53
2022-11-26T19:25:59.137Z,133.33
2022-11-26T19:31:07.768Z,142.63
2022-11-26T19:36:12.911Z,142.80
2022-11-26T19:41:21.246Z,127.43
2022-11-26T19:46:28.294Z,143.47
2022-11-26T19:51:34.948Z,118.63
2022-11-26T19:56:39.017Z,126.83
2022-11-26T20:01:40.992Z,127.63
2022-11-26T20:06:45.809Z,124.47
2022-11-26T20:11:49.943Z,135.83
2022-11-26T20:16:59.429Z,111.73
2022-11-26T20:22:05.621Z,133.10
2022-11-26T20:27:09.470Z,134.07
2022-11-26T20:32:16.197Z,115.67
2022-11-26T20:37:20.865Z,146.60
2022-11-26T20:42:24.632Z,124.60
2022-11-26T20:47:30.879Z,119.70
2022-11-26T20:52:34.936Z,105.90
2022-11-26T20:57:36.967Z,110.77
2022-11-26T21:02:41.848Z,99.07
2022-11-26T21:07:45.979Z,94.83
2022-11-26T21:12:49.965Z,101.67
2022-11-26T21:17:58.561Z,96.93
2022-11-26T21:23:00.276Z,84.77
2022-11-26T21:28:04.135Z,70.43
2022-11-26T21:33:12.756Z,70.17
2022-11-26T21:38:16.799Z,75.37
2022-11-26T21:43:21.831Z,78.17
2022-11-26T21:48:23.557Z,65.57
2022-11-26T21:53:27.554Z,71.37
2022-11-26T21:58:37.155Z,67.53
2022-11-26T22:03:40.953Z,57.93
2022-11-26T22:08:48.292Z,64.83
2022-11-26T22:13:52.450Z,59.13
2022-11-26T22:18:57.215Z,48.77
2022-11-26T22:24:05.161Z,62.23
2022-11-26T22:29:06.964Z,60.57
2022-11-26T22:34:13.546Z,58.53
2022-11-26T22:39:18.406Z,54.63
2022-11-26T22:44:20.114Z,59.20
2022-11-26T22:49:22.123Z,48.97
2022-11-26T22:54:28.562Z,61.90
2022-11-26T22:59:30.584Z,57.13
2022-11-26T23:04:32.337Z,47.47
2022-11-26T23:09:34.052Z,48.20
2022-11-26T23:14:35.735Z,51.77
2022-11-26T23:19:37.688Z,49.13
2022-11-26T23:24:41.768Z,48.00
2022-11-26T23:29:45.692Z,49.57
2022-11-26T23:34:50.451Z,45.63
2022-11-26T23:39:54.590Z,47.17
2022-11-26T23:44:58.449Z,52.00
2022-11-26T23:50:01.130Z,48.17
2022-11-26T23:55:05.744Z,47.13
